Time;durP1;ratioP1;P1;durP2;ratioP2;P2;SDS_P1;SDS_P2;PMS_P1;PMS_P2;Temp;Humidity;BMP_temperature;BMP_pressure;BME280_temperature;BME280_humidity;BME280_pressure;Samples;Min_cycle;Max_cycle;Signal;HPM_P1;HPM_P2
2022/09/18 00:01:57;;;;;;;;;;;22.60;71.00;;;;;;5014770;28;19936;-76
2022/09/18 00:04:24;;;;;;;;;;;22.60;71.00;;;;;;5014741;28;19926;-77
2022/09/18 00:06:51;;;;;;;;;;;22.60;70.90;;;;;;5015548;28;19925;-76
2022/09/18 00:09:17;;;;;;;;;;;22.60;70.80;;;;;;5014595;28;20008;-77
2022/09/18 00:11:45;;;;;;;;;;;22.60;70.60;;;;;;5014562;28;20017;-77
2022/09/18 00:14:14;;;;;;;;;;;22.60;70.60;;;;;;5014600;28;19925;-77
2022/09/18 00:16:41;;;;;;;;;;;22.60;70.60;;;;;;5014569;28;19948;-77
2022/09/18 00:19:09;;;;;;;;;;;22.60;70.60;;;;;;5014173;28;19976;-77
2022/09/18 00:21:36;;;;;;;;;;;22.60;70.60;;;;;;5014202;28;19948;-77
2022/09/18 00:24:03;;;;;;;;;;;22.60;70.60;;;;;;5014464;28;19932;-77
2022/09/18 00:26:30;;;;;;;;;;;22.60;70.60;;;;;;5014452;28;19926;-76
2022/09/18 00:28:58;;;;;;;;;;;22.60;70.60;;;;;;5014342;28;20021;-76
2022/09/18 00:31:26;;;;;;;;;;;22.60;70.60;;;;;;5014323;28;19934;-76
2022/09/18 00:33:53;;;;;;;;;;;22.60;70.60;;;;;;5014350;28;19925;-77
2022/09/18 00:36:21;;;;;;;;;;;22.60;70.60;;;;;;5014317;28;19932;-76
2022/09/18 00:38:48;;;;;;;;;;;22.60;70.60;;;;;;5013881;28;19925;-77
2022/09/18 00:41:16;;;;;;;;;;;22.60;70.60;;;;;;5016793;28;19932;-78
2022/09/18 00:43:43;;;;;;;;;;;22.60;70.60;;;;;;5018874;28;19926;-78
2022/09/18 05:51:45;;;;;;;;;;;22.50;66.70;;;;;;5769629;23;20299;-78
2022/09/18 05:54:12;;;;;;;;;;;22.50;66.70;;;;;;5024225;28;20280;-78
2022/09/18 05:56:38;;;;;;;;;;;22.50;66.70;;;;;;5022633;28;19926;-79
2022/09/18 05:59:05;;;;;;;;;;;22.50;66.70;;;;;;5021485;28;19989;-79
2022/09/18 06:01:32;;;;;;;;;;;22.50;66.70;;;;;;5018273;28;20016;-79
2022/09/18 06:04:01;;;;;;;;;;;22.50;66.80;;;;;;5018599;28;19932;-79
2022/09/18 06:06:28;;;;;;;;;;;22.50;67.50;;;;;;5019867;28;19948;-79
2022/09/18 06:08:56;;;;;;;;;;;22.50;66.80;;;;;;5017109;28;19926;-79
2022/09/18 06:11:22;;;;;;;;;;;22.50;66.80;;;;;;5017787;28;20351;-78
2022/09/18 06:13:51;;;;;;;;;;;22.50;66.80;;;;;;5016600;28;20012;-78
2022/09/18 06:16:17;;;;;;;;;;;22.50;66.80;;;;;;5018278;28;19992;-78
2022/09/18 06:18:44;;;;;;;;;;;22.50;66.90;;;;;;5019046;28;19925;-78
2022/09/18 06:21:13;;;;;;;;;;;22.40;66.70;;;;;;5018664;28;19925;-78
2022/09/18 06:23:40;;;;;;;;;;;22.50;66.90;;;;;;5017074;28;19926;-78
2022/09/18 06:26:09;;;;;;;;;;;22.50;66.90;;;;;;5016999;28;19926;-79
2022/09/18 06:28:36;;;;;;;;;;;22.50;66.90;;;;;;5018858;28;19926;-79
2022/09/18 06:31:04;;;;;;;;;;;22.40;66.80;;;;;;5018852;28;20008;-79
2022/09/18 06:33:32;;;;;;;;;;;22.50;67.00;;;;;;5017252;28;19925;-79
2022/09/18 06:35:59;;;;;;;;;;;22.50;67.00;;;;;;5018691;28;19933;-79
2022/09/18 06:38:26;;;;;;;;;;;22.50;67.10;;;;;;5017771;28;19930;-79
2022/09/18 06:40:53;;;;;;;;;;;22.50;67.10;;;;;;5018222;28;20016;-79
2022/09/18 06:43:21;;;;;;;;;;;22.50;67.10;;;;;;5020882;28;19925;-78
2022/09/18 06:45:52;;;;;;;;;;;22.40;67.00;;;;;;5022484;28;19937;-79
2022/09/18 06:48:18;;;;;;;;;;;22.40;67.00;;;;;;5019342;28;19932;-79
2022/09/18 06:50:50;;;;;;;;;;;22.40;67.10;;;;;;5022642;28;20299;-80
2022/09/18 06:53:17;;;;;;;;;;;22.40;67.10;;;;;;5017475;28;19926;-78
2022/09/18 06:55:44;;;;;;;;;;;22.50;67.20;;;;;;5018593;28;20016;-79
2022/09/18 06:58:10;;;;;;;;;;;22.40;67.20;;;;;;5021695;28;20273;-79
2022/09/18 07:00:38;;;;;;;;;;;22.40;67.20;;;;;;5020828;28;19926;-79
2022/09/18 07:03:05;;;;;;;;;;;22.40;67.20;;;;;;5019565;28;19926;-79
2022/09/18 07:05:32;;;;;;;;;;;22.40;67.20;;;;;;5020351;28;19925;-79
2022/09/18 07:08:00;;;;;;;;;;;22.40;67.30;;;;;;5020257;28;19925;-79
2022/09/18 07:10:27;;;;;;;;;;;22.40;67.30;;;;;;5020521;28;20369;-79
2022/09/18 07:12:55;;;;;;;;;;;22.40;67.30;;;;;;5022818;28;19986;-80
2022/09/18 07:15:22;;;;;;;;;;;22.40;67.30;;;;;;5021874;28;19926;-80
2022/09/18 07:17:51;;;;;;;;;;;22.40;67.30;;;;;;5020339;28;19929;-80
2022/09/18 07:20:18;;;;;;;;;;;22.40;67.30;;;;;;5019808;28;19929;-81
2022/09/18 07:22:51;;;;;;;;;;;22.40;67.30;;;;;;5019546;28;20016;-81
2022/09/18 07:25:18;;;;;;;;;;;22.40;67.30;;;;;;5019949;28;19936;-80
2022/09/18 07:27:45;;;;;;;;;;;22.40;67.30;;;;;;5019421;28;19965;-81
2022/09/18 07:30:12;;;;;;;;;;;22.40;67.30;;;;;;5019882;28;20012;-80
2022/09/18 07:32:38;;;;;;;;;;;22.40;67.40;;;;;;5018379;28;19936;-80
2022/09/18 07:35:07;;;;;;;;;;;22.40;67.30;;;;;;5019512;28;20016;-80
2022/09/18 07:37:34;;;;;;;;;;;22.40;67.30;;;;;;5020085;28;19925;-81
2022/09/18 07:40:00;;;;;;;;;;;22.40;67.30;;;;;;5019264;28;19925;-81
2022/09/18 07:42:27;;;;;;;;;;;22.40;67.20;;;;;;5019351;28;19926;-81
2022/09/18 07:44:54;;;;;;;;;;;22.40;67.20;;;;;;5019990;28;20367;-81
2022/09/18 07:47:23;;;;;;;;;;;22.40;67.20;;;;;;5021033;28;19929;-81
2022/09/18 07:49:50;;;;;;;;;;;22.40;67.10;;;;;;5020209;28;19926;-82
2022/09/18 07:52:18;;;;;;;;;;;22.40;67.10;;;;;;5019681;28;19949;-81
2022/09/18 07:54:44;;;;;;;;;;;22.40;67.10;;;;;;5021128;28;19992;-82
2022/09/18 07:57:11;;;;;;;;;;;22.40;67.00;;;;;;5019479;28;19964;-82
2022/09/18 07:59:38;;;;;;;;;;;22.40;66.90;;;;;;5022634;28;19957;-83
2022/09/18 08:02:05;;;;;;;;;;;22.40;66.80;;;;;;5034480;28;19995;-82
2022/09/18 08:04:31;;;;;;;;;;;22.40;66.80;;;;;;5035085;28;19961;-82
2022/09/18 08:07:02;;;;;;;;;;;22.40;66.70;;;;;;5025986;28;20024;-82
2022/09/18 08:09:30;;;;;;;;;;;22.40;66.50;;;;;;5021049;28;19960;-79
2022/09/18 08:11:57;;;;;;;;;;;22.40;66.50;;;;;;5018946;28;20396;-79
2022/09/18 08:14:24;;;;;;;;;;;22.40;66.20;;;;;;5023049;28;19926;-79
2022/09/18 08:16:50;;;;;;;;;;;22.40;66.00;;;;;;5019857;28;20385;-80
2022/09/18 08:19:17;;;;;;;;;;;22.30;65.60;;;;;;5019196;28;19926;-79
2022/09/18 08:21:44;;;;;;;;;;;22.30;65.40;;;;;;5019114;28;19953;-78
2022/09/18 08:24:10;;;;;;;;;;;22.30;65.20;;;;;;5017724;28;19932;-78
2022/09/18 08:26:38;;;;;;;;;;;22.30;64.90;;;;;;5015599;28;19933;-78
2022/09/18 08:29:05;;;;;;;;;;;22.30;64.60;;;;;;5016686;28;20381;-81
2022/09/18 08:31:32;;;;;;;;;;;22.30;64.30;;;;;;5018046;28;20439;-78
2022/09/18 08:33:58;;;;;;;;;;;22.30;64.30;;;;;;5016805;28;19932;-78
2022/09/18 08:36:25;;;;;;;;;;;22.20;64.10;;;;;;5018367;28;19971;-78
2022/09/18 08:38:52;;;;;;;;;;;22.20;63.60;;;;;;5018708;28;19968;-78
2022/09/18 08:41:23;;;;;;;;;;;22.20;63.30;;;;;;5015477;28;20005;-77
2022/09/18 08:43:55;;;;;;;;;;;22.20;63.10;;;;;;5016881;28;20016;-78
2022/09/18 08:46:25;;;;;;;;;;;22.20;62.80;;;;;;5017834;28;19932;-78
2022/09/18 08:48:56;;;;;;;;;;;22.20;62.50;;;;;;5017543;28;20008;-78
2022/09/18 08:51:24;;;;;;;;;;;22.20;62.30;;;;;;5018196;28;19926;-78
2022/09/18 08:53:54;;;;;;;;;;;22.20;61.90;;;;;;5017093;28;19996;-78
2022/09/18 08:56:21;;;;;;;;;;;22.20;61.60;;;;;;5017619;28;19925;-78
2022/09/18 08:58:51;;;;;;;;;;;22.20;61.30;;;;;;5017590;28;19926;-77
2022/09/18 09:01:19;;;;;;;;;;;22.20;61.10;;;;;;5016667;28;19925;-78
2022/09/18 09:03:51;;;;;;;;;;;22.20;60.70;;;;;;5015013;28;19925;-77
2022/09/18 09:06:26;;;;;;;;;;;22.20;60.30;;;;;;5016645;28;19925;-77
2022/09/18 09:09:03;;;;;;;;;;;22.20;60.10;;;;;;5014170;28;19972;-77
2022/09/18 09:11:34;;;;;;;;;;;22.20;59.80;;;;;;5014517;28;19977;-79
2022/09/18 09:14:15;;;;;;;;;;;22.20;59.60;;;;;;5014078;28;19937;-74
2022/09/18 09:16:43;;;;;;;;;;;22.20;59.40;;;;;;5015028;28;19926;-76
2022/09/18 09:19:21;;;;;;;;;;;22.20;59.10;;;;;;5017802;28;19925;-75
2022/09/18 09:21:52;;;;;;;;;;;22.20;58.90;;;;;;5017449;28;19932;-75
2022/09/18 09:24:29;;;;;;;;;;;22.20;58.50;;;;;;5017839;28;19929;-75
2022/09/18 09:26:57;;;;;;;;;;;22.20;58.50;;;;;;5018327;28;19929;-75
2022/09/18 09:29:27;;;;;;;;;;;22.20;58.50;;;;;;5018221;28;20292;-74
2022/09/18 09:31:57;;;;;;;;;;;22.20;58.50;;;;;;5017397;28;20373;-75
2022/09/18 09:34:26;;;;;;;;;;;22.20;58.00;;;;;;5017512;28;19925;-74
2022/09/18 09:36:55;;;;;;;;;;;22.10;57.70;;;;;;5018416;28;19934;-75
2022/09/18 09:39:24;;;;;;;;;;;22.10;57.50;;;;;;5019529;28;19926;-74
2022/09/18 09:41:54;;;;;;;;;;;22.10;57.30;;;;;;5018096;28;19932;-74
2022/09/18 09:44:23;;;;;;;;;;;22.10;57.20;;;;;;5017112;28;20379;-75
2022/09/18 09:47:03;;;;;;;;;;;22.20;57.10;;;;;;5017915;28;20000;-74
2022/09/18 09:49:33;;;;;;;;;;;22.10;57.40;;;;;;5017473;28;20270;-74
2022/09/18 09:52:04;;;;;;;;;;;22.20;56.80;;;;;;5019412;28;19936;-74
2022/09/18 09:54:31;;;;;;;;;;;22.20;56.70;;;;;;5019365;28;20499;-74
2022/09/18 09:57:02;;;;;;;;;;;22.20;56.50;;;;;;5020224;28;19991;-75
2022/09/18 09:59:32;;;;;;;;;;;22.20;56.30;;;;;;5019297;28;19936;-74
2022/09/18 10:02:02;;;;;;;;;;;22.20;56.20;;;;;;5018902;28;19935;-75
2022/09/18 10:04:34;;;;;;;;;;;22.20;56.10;;;;;;5019070;28;19936;-75
2022/09/18 10:07:05;;;;;;;;;;;22.20;55.90;;;;;;5018888;28;20274;-73
2022/09/18 10:09:37;;;;;;;;;;;22.20;55.70;;;;;;5017561;28;19926;-74
2022/09/18 10:12:08;;;;;;;;;;;22.20;55.60;;;;;;5016527;28;19925;-73
2022/09/18 10:14:37;;;;;;;;;;;22.20;55.50;;;;;;5016847;28;19932;-73
2022/09/18 10:17:05;;;;;;;;;;;22.20;55.30;;;;;;5017088;28;19932;-73
2022/09/18 10:19:37;;;;;;;;;;;22.20;55.20;;;;;;5017212;28;19938;-73
2022/09/18 10:22:06;;;;;;;;;;;22.20;55.10;;;;;;5017204;28;19926;-73
2022/09/18 10:24:38;;;;;;;;;;;22.20;55.00;;;;;;5016891;28;19931;-73
2022/09/18 10:27:08;;;;;;;;;;;22.20;54.90;;;;;;5017169;28;20293;-73
2022/09/18 10:29:35;;;;;;;;;;;22.20;54.80;;;;;;5015900;28;19932;-73
2022/09/18 10:32:02;;;;;;;;;;;22.20;54.70;;;;;;5016868;28;20013;-73
2022/09/18 10:34:33;;;;;;;;;;;22.20;54.60;;;;;;5016190;28;19952;-73
2022/09/18 10:37:01;;;;;;;;;;;22.20;54.50;;;;;;5016515;28;19925;-76
2022/09/18 10:39:29;;;;;;;;;;;22.20;54.50;;;;;;5017425;28;19937;-80
2022/09/18 10:41:57;;;;;;;;;;;22.20;54.40;;;;;;5019163;28;20040;-80
2022/09/18 10:44:25;;;;;;;;;;;22.20;54.30;;;;;;5019642;28;19925;-80
2022/09/18 10:46:57;;;;;;;;;;;22.20;54.10;;;;;;5019600;28;19965;-82
2022/09/18 10:49:25;;;;;;;;;;;22.20;53.80;;;;;;5020522;28;19926;-82
2022/09/18 10:52:07;;;;;;;;;;;22.20;53.70;;;;;;5023231;28;19956;-82
2022/09/18 10:54:36;;;;;;;;;;;22.20;53.70;;;;;;5011236;28;20344;-81
2022/09/18 10:57:23;;;;;;;;;;;22.20;54.30;;;;;;5021994;28;19964;-82
2022/09/18 10:59:50;;;;;;;;;;;22.20;53.70;;;;;;5022710;28;19925;-82
2022/09/18 11:02:18;;;;;;;;;;;22.10;53.30;;;;;;5021915;28;19932;-79
2022/09/18 11:04:47;;;;;;;;;;;22.20;53.20;;;;;;5020831;28;19926;-79
2022/09/18 11:07:15;;;;;;;;;;;22.10;52.90;;;;;;5019270;28;20369;-79
2022/09/18 11:09:47;;;;;;;;;;;22.10;52.80;;;;;;5020147;28;20403;-79
2022/09/18 11:12:17;;;;;;;;;;;22.10;52.70;;;;;;5007478;28;19925;-80
2022/09/18 11:14:47;;;;;;;;;;;22.10;52.60;;;;;;5022136;28;19925;-84
2022/09/18 11:17:20;;;;;;;;;;;22.10;52.50;;;;;;5020981;28;19925;-84
2022/09/18 11:19:50;;;;;;;;;;;22.20;52.50;;;;;;5025448;28;19925;-83
2022/09/18 11:22:35;;;;;;;;;;;22.20;52.30;;;;;;5021347;28;19925;-84
2022/09/18 11:25:19;;;;;;;;;;;22.20;52.20;;;;;;5025040;28;19925;-83
2022/09/18 11:27:49;;;;;;;;;;;22.10;52.00;;;;;;5025248;28;19926;-83
2022/09/18 11:30:20;;;;;;;;;;;22.10;51.80;;;;;;5026174;28;19945;-83
2022/09/18 11:32:49;;;;;;;;;;;22.10;51.70;;;;;;5023272;28;19932;-83
2022/09/18 11:35:21;;;;;;;;;;;22.10;51.50;;;;;;5016761;28;19925;-83
2022/09/18 11:37:50;;;;;;;;;;;22.10;51.40;;;;;;5017518;28;20266;-83
2022/09/18 11:40:21;;;;;;;;;;;22.10;51.30;;;;;;5020396;28;20028;-83
2022/09/18 11:42:51;;;;;;;;;;;22.10;51.20;;;;;;5020474;28;19926;-82
2022/09/18 11:45:28;;;;;;;;;;;22.10;51.20;;;;;;5021892;28;19925;-82
2022/09/18 11:47:57;;;;;;;;;;;22.10;51.10;;;;;;5020940;28;19925;-83
2022/09/18 11:50:26;;;;;;;;;;;22.10;51.10;;;;;;5020556;28;19926;-83
2022/09/18 11:52:54;;;;;;;;;;;22.10;51.00;;;;;;5016288;28;19925;-84
2022/09/18 11:55:26;;;;;;;;;;;22.10;50.80;;;;;;5014783;28;20020;-84
2022/09/18 11:57:58;;;;;;;;;;;22.10;50.70;;;;;;5015215;28;20309;-84
2022/09/18 12:00:29;;;;;;;;;;;22.10;50.60;;;;;;5014811;28;19926;-85
2022/09/18 12:02:59;;;;;;;;;;;22.10;50.50;;;;;;5015671;28;20311;-83
2022/09/18 12:05:28;;;;;;;;;;;22.10;50.40;;;;;;5018458;28;19969;-81
2022/09/18 12:07:59;;;;;;;;;;;22.10;50.30;;;;;;5016983;28;19933;-81
2022/09/18 12:10:32;;;;;;;;;;;22.10;50.20;;;;;;5016816;28;20423;-81
2022/09/18 12:13:10;;;;;;;;;;;22.10;50.10;;;;;;5015064;28;19926;-82
2022/09/18 12:15:38;;;;;;;;;;;22.10;50.10;;;;;;5015998;28;19976;-82
2022/09/18 12:18:09;;;;;;;;;;;22.10;50.00;;;;;;5016120;28;20371;-81
2022/09/18 12:20:40;;;;;;;;;;;22.10;50.00;;;;;;5018748;28;19925;-81
2022/09/18 12:23:12;;;;;;;;;;;22.10;49.80;;;;;;5019602;28;19926;-81
2022/09/18 12:25:45;;;;;;;;;;;22.20;49.90;;;;;;5020108;28;19948;-81
2022/09/18 12:28:17;;;;;;;;;;;22.10;49.70;;;;;;5019051;28;19929;-81
2022/09/18 12:30:48;;;;;;;;;;;22.20;49.80;;;;;;5017358;28;19926;-81
2022/09/18 12:33:21;;;;;;;;;;;22.20;49.70;;;;;;5017275;28;19925;-80
2022/09/18 12:35:56;;;;;;;;;;;22.20;49.70;;;;;;5018454;28;20012;-81
2022/09/18 12:38:29;;;;;;;;;;;22.20;49.60;;;;;;5017142;28;19932;-79
2022/09/18 12:41:05;;;;;;;;;;;22.20;49.50;;;;;;5016750;28;20281;-80
2022/09/18 12:43:45;;;;;;;;;;;22.20;49.50;;;;;;5018325;28;19930;-78
2022/09/18 12:46:17;;;;;;;;;;;22.20;49.40;;;;;;5018906;28;20416;-79
2022/09/18 12:48:53;;;;;;;;;;;22.20;49.40;;;;;;5019515;28;19930;-78
2022/09/18 12:51:34;;;;;;;;;;;22.20;49.30;;;;;;5019884;28;20300;-78
2022/09/18 12:54:08;;;;;;;;;;;22.20;49.30;;;;;;5019788;28;19925;-80
2022/09/18 12:56:50;;;;;;;;;;;22.20;49.20;;;;;;5021909;28;19985;-80
2022/09/18 12:59:28;;;;;;;;;;;22.20;49.00;;;;;;5025015;28;19949;-82
2022/09/18 13:01:57;;;;;;;;;;;22.20;48.90;;;;;;5025954;28;19961;-81
2022/09/18 13:04:25;;;;;;;;;;;22.20;48.90;;;;;;5026883;28;20012;-81
2022/09/18 13:06:55;;;;;;;;;;;22.20;48.90;;;;;;5027732;28;19929;-81
2022/09/18 13:09:25;;;;;;;;;;;22.20;48.90;;;;;;5027955;28;19929;-82
2022/09/18 13:11:58;;;;;;;;;;;22.20;48.90;;;;;;5029329;28;19929;-82
2022/09/18 13:14:27;;;;;;;;;;;22.20;48.90;;;;;;5028122;28;19929;-81
2022/09/18 13:16:56;;;;;;;;;;;22.20;48.90;;;;;;5027303;28;20008;-81
2022/09/18 13:19:26;;;;;;;;;;;22.20;48.90;;;;;;5027111;28;20384;-82
2022/09/18 13:21:54;;;;;;;;;;;22.20;48.90;;;;;;5028963;28;19925;-81
2022/09/18 13:24:22;;;;;;;;;;;22.20;48.90;;;;;;5028715;28;19932;-82
2022/09/18 13:26:51;;;;;;;;;;;22.20;48.90;;;;;;5029461;28;20328;-78
2022/09/18 13:29:36;;;;;;;;;;;22.20;48.70;;;;;;5028935;28;19925;-78
2022/09/18 13:32:05;;;;;;;;;;;22.20;48.60;;;;;;5026291;28;19925;-78
2022/09/18 13:34:32;;;;;;;;;;;22.20;48.50;;;;;;5020895;28;19933;-78
2022/09/18 13:37:05;;;;;;;;;;;22.20;48.50;;;;;;5018766;28;19933;-79
2022/09/18 13:39:32;;;;;;;;;;;22.20;48.40;;;;;;5019401;28;19926;-79
2022/09/18 13:42:00;;;;;;;;;;;22.20;48.30;;;;;;5020428;28;19926;-80
2022/09/18 13:44:27;;;;;;;;;;;22.20;48.20;;;;;;5019668;28;20381;-75
2022/09/18 13:46:56;;;;;;;;;;;22.30;48.20;;;;;;5017076;28;20324;-75
2022/09/18 13:49:27;;;;;;;;;;;22.30;48.10;;;;;;5017277;28;20348;-74
2022/09/18 13:51:54;;;;;;;;;;;22.20;47.90;;;;;;5017161;28;19925;-75
2022/09/18 13:54:23;;;;;;;;;;;22.20;47.80;;;;;;5016972;28;19932;-75
2022/09/18 13:57:09;;;;;;;;;;;22.20;47.80;;;;;;5016786;28;19932;-73
2022/09/18 13:59:46;;;;;;;;;;;22.20;47.70;;;;;;5017068;28;19971;-72
2022/09/18 14:02:23;;;;;;;;;;;22.30;47.60;;;;;;5016664;28;19932;-72
2022/09/18 14:04:57;;;;;;;;;;;22.30;47.50;;;;;;5016839;28;19932;-73
2022/09/18 14:07:49;;;;;;;;;;;22.30;47.50;;;;;;5016955;28;20306;-74
2022/09/18 14:10:24;;;;;;;;;;;22.30;47.40;;;;;;5016892;28;19959;-73
2022/09/18 14:13:06;;;;;;;;;;;22.30;47.40;;;;;;5016743;28;19926;-72
2022/09/18 14:15:33;;;;;;;;;;;22.30;47.30;;;;;;5016367;28;19937;-72
2022/09/18 14:18:05;;;;;;;;;;;22.30;47.30;;;;;;5016683;28;19932;-72
2022/09/18 14:20:34;;;;;;;;;;;22.30;47.30;;;;;;5016691;28;20286;-72
2022/09/18 14:23:15;;;;;;;;;;;22.40;47.30;;;;;;5016593;28;20024;-72
2022/09/18 14:25:43;;;;;;;;;;;22.40;47.30;;;;;;5016193;28;19935;-72
2022/09/18 14:28:13;;;;;;;;;;;22.40;47.20;;;;;;5017956;28;19930;-76
2022/09/18 14:30:40;;;;;;;;;;;22.40;47.20;;;;;;5016504;28;19925;-77
2022/09/18 14:33:17;;;;;;;;;;;22.40;47.20;;;;;;5016512;28;20032;-78
2022/09/18 14:35:49;;;;;;;;;;;22.40;47.20;;;;;;5017940;28;19925;-78
2022/09/18 14:38:26;;;;;;;;;;;22.40;47.10;;;;;;5016271;28;19925;-78
2022/09/18 14:40:55;;;;;;;;;;;22.40;47.00;;;;;;5016850;28;20015;-78
2022/09/18 14:43:22;;;;;;;;;;;22.40;47.00;;;;;;5016353;28;20288;-75
2022/09/18 14:45:49;;;;;;;;;;;22.30;46.80;;;;;;5016402;28;19932;-75
2022/09/18 14:48:20;;;;;;;;;;;22.30;46.70;;;;;;5016246;28;19925;-76
2022/09/18 14:50:59;;;;;;;;;;;22.30;46.60;;;;;;5014812;28;19925;-75
2022/09/18 14:53:27;;;;;;;;;;;22.30;46.50;;;;;;5016222;28;19933;-75
2022/09/18 14:55:55;;;;;;;;;;;22.30;46.50;;;;;;5016990;28;19925;-75
2022/09/18 14:58:23;;;;;;;;;;;22.30;46.50;;;;;;5017618;28;20017;-79
2022/09/18 15:00:53;;;;;;;;;;;22.30;46.40;;;;;;5017798;28;20397;-79
2022/09/18 15:03:21;;;;;;;;;;;22.30;46.40;;;;;;5018138;28;19925;-79
2022/09/18 15:05:51;;;;;;;;;;;22.30;46.30;;;;;;5018792;28;20288;-79
2022/09/18 15:08:21;;;;;;;;;;;22.30;46.30;;;;;;5019371;28;19925;-79
2022/09/18 15:10:49;;;;;;;;;;;22.30;46.30;;;;;;5017472;28;19925;-78
2022/09/18 15:13:16;;;;;;;;;;;22.30;46.30;;;;;;5019571;28;19937;-81
2022/09/18 15:15:44;;;;;;;;;;;22.30;46.30;;;;;;5017983;28;19930;-78
2022/09/18 15:18:18;;;;;;;;;;;22.30;46.30;;;;;;5016233;28;19931;-78
2022/09/18 15:20:48;;;;;;;;;;;22.30;46.30;;;;;;5016406;28;20377;-78
2022/09/18 15:23:23;;;;;;;;;;;22.30;46.30;;;;;;5016790;28;19925;-79
2022/09/18 15:25:52;;;;;;;;;;;22.30;46.30;;;;;;5016573;28;19979;-78
2022/09/18 15:28:20;;;;;;;;;;;22.40;46.40;;;;;;5015113;28;19925;-78
2022/09/18 15:30:47;;;;;;;;;;;22.40;46.40;;;;;;5015932;28;19925;-78
2022/09/18 15:33:17;;;;;;;;;;;22.40;46.40;;;;;;5015189;28;19984;-78
2022/09/18 15:35:46;;;;;;;;;;;22.40;46.50;;;;;;5017291;28;20381;-80
2022/09/18 15:38:16;;;;;;;;;;;22.40;46.50;;;;;;5017967;28;19979;-79
2022/09/18 15:40:44;;;;;;;;;;;22.40;46.60;;;;;;5018851;28;19968;-82
2022/09/18 15:43:39;;;;;;;;;;;22.40;46.60;;;;;;5019605;28;19926;-81
2022/09/18 15:46:07;;;;;;;;;;;22.40;46.60;;;;;;5016972;28;20381;-79
2022/09/18 15:48:35;;;;;;;;;;;22.40;46.70;;;;;;5015326;28;19936;-76
2022/09/18 15:51:07;;;;;;;;;;;22.40;46.70;;;;;;5014967;28;20016;-77
2022/09/18 15:53:33;;;;;;;;;;;22.40;46.80;;;;;;5014726;28;19929;-75
2022/09/18 15:56:06;;;;;;;;;;;22.50;46.90;;;;;;5014883;28;19925;-76
2022/09/18 15:58:35;;;;;;;;;;;22.50;47.00;;;;;;5015196;28;19965;-76
2022/09/18 16:01:04;;;;;;;;;;;22.50;47.10;;;;;;5015499;28;20011;-78
2022/09/18 16:03:31;;;;;;;;;;;22.50;47.10;;;;;;5015672;28;19948;-80
2022/09/18 16:05:59;;;;;;;;;;;22.50;47.20;;;;;;5017271;28;19976;-79
2022/09/18 16:08:27;;;;;;;;;;;22.50;47.20;;;;;;5015498;28;20352;-79
2022/09/18 16:10:55;;;;;;;;;;;22.50;47.30;;;;;;5017399;28;20408;-78
2022/09/18 16:13:36;;;;;;;;;;;22.50;47.40;;;;;;5014793;28;19933;-78
2022/09/18 16:16:20;;;;;;;;;;;22.50;47.40;;;;;;5014361;28;20427;-74
2022/09/18 16:18:49;;;;;;;;;;;22.50;47.50;;;;;;5014459;28;20012;-76
2022/09/18 16:21:16;;;;;;;;;;;22.50;47.60;;;;;;5014505;28;19930;-74
2022/09/18 16:23:47;;;;;;;;;;;22.50;47.60;;;;;;5014178;28;20350;-74
2022/09/18 16:26:20;;;;;;;;;;;22.50;47.60;;;;;;5014495;28;20289;-74
2022/09/18 16:28:49;;;;;;;;;;;22.50;47.60;;;;;;5014513;28;19925;-74
2022/09/18 16:31:17;;;;;;;;;;;22.40;47.50;;;;;;5014330;28;20016;-74
2022/09/18 16:33:48;;;;;;;;;;;22.40;47.40;;;;;;5014373;28;19937;-74
2022/09/18 16:36:18;;;;;;;;;;;22.40;47.40;;;;;;5014063;28;19949;-74
2022/09/18 16:38:44;;;;;;;;;;;22.40;47.30;;;;;;5014170;28;19979;-74
2022/09/18 16:41:11;;;;;;;;;;;22.30;47.10;;;;;;5014380;28;20342;-73
2022/09/18 16:43:38;;;;;;;;;;;22.30;47.10;;;;;;5014549;28;19930;-73
2022/09/18 16:46:06;;;;;;;;;;;22.30;47.00;;;;;;5014465;28;19968;-74
2022/09/18 16:48:34;;;;;;;;;;;22.30;46.90;;;;;;5014971;28;19925;-73
2022/09/18 16:51:01;;;;;;;;;;;22.30;47.00;;;;;;5014629;28;19969;-74
2022/09/18 16:53:27;;;;;;;;;;;22.30;47.00;;;;;;5014079;28;19948;-73
2022/09/18 16:55:57;;;;;;;;;;;22.30;47.00;;;;;;5014115;28;20037;-73
2022/09/18 16:58:25;;;;;;;;;;;22.30;47.00;;;;;;5014909;28;19972;-75
2022/09/18 17:00:52;;;;;;;;;;;22.40;47.10;;;;;;5014231;28;20411;-75
2022/09/18 17:03:20;;;;;;;;;;;22.30;47.10;;;;;;5014425;28;19926;-75
2022/09/18 17:05:47;;;;;;;;;;;22.40;47.20;;;;;;5016534;28;19960;-76
2022/09/18 17:08:14;;;;;;;;;;;22.40;47.20;;;;;;5021804;28;20001;-75
2022/09/18 17:10:41;;;;;;;;;;;22.40;47.30;;;;;;5022233;28;19932;-76
2022/09/18 17:13:08;;;;;;;;;;;22.40;47.30;;;;;;5021925;28;19992;-77
2022/09/18 17:15:35;;;;;;;;;;;22.40;47.40;;;;;;5022527;28;19957;-78
2022/09/18 17:18:02;;;;;;;;;;;22.40;47.50;;;;;;5021599;28;19925;-78
2022/09/18 17:20:32;;;;;;;;;;;22.40;47.60;;;;;;5020150;28;19925;-78
2022/09/18 17:22:58;;;;;;;;;;;22.40;47.60;;;;;;5013927;28;19992;-78
2022/09/18 17:25:26;;;;;;;;;;;22.40;47.60;;;;;;5013906;28;19929;-77
2022/09/18 17:27:53;;;;;;;;;;;22.40;47.70;;;;;;5013999;28;19931;-77
2022/09/18 17:30:20;;;;;;;;;;;22.40;47.80;;;;;;5013857;28;20027;-77
2022/09/18 17:32:47;;;;;;;;;;;22.40;47.90;;;;;;5013528;28;19926;-77
2022/09/18 17:35:14;;;;;;;;;;;22.40;47.90;;;;;;5017893;28;20385;-77
2022/09/18 17:37:42;;;;;;;;;;;22.40;48.00;;;;;;5020605;28;19932;-76
2022/09/18 17:40:11;;;;;;;;;;;22.40;48.10;;;;;;5024100;28;19947;-76
2022/09/18 17:42:39;;;;;;;;;;;22.50;48.30;;;;;;5023117;28;19933;-77
2022/09/18 17:45:05;;;;;;;;;;;22.40;48.30;;;;;;5019944;28;20377;-73
2022/09/18 17:47:32;;;;;;;;;;;22.40;48.40;;;;;;5020434;28;19975;-74
2022/09/18 17:50:00;;;;;;;;;;;22.40;48.50;;;;;;5020809;28;19932;-71
2022/09/18 17:52:27;;;;;;;;;;;22.40;48.60;;;;;;5019629;28;19956;-71
2022/09/18 17:54:55;;;;;;;;;;;22.40;48.60;;;;;;5020215;28;19948;-71
2022/09/18 17:57:21;;;;;;;;;;;22.50;48.90;;;;;;5019302;28;19925;-71
2022/09/18 17:59:48;;;;;;;;;;;22.50;48.90;;;;;;5017131;28;20016;-73
2022/09/18 18:02:15;;;;;;;;;;;22.50;49.20;;;;;;5017927;28;20018;-72
2022/09/18 18:04:42;;;;;;;;;;;22.40;49.10;;;;;;5018090;28;19933;-73
2022/09/18 18:07:09;;;;;;;;;;;22.50;49.20;;;;;;5018294;28;19972;-73
2022/09/18 18:09:36;;;;;;;;;;;22.50;49.20;;;;;;5017817;28;20016;-73
2022/09/18 18:12:05;;;;;;;;;;;22.50;49.20;;;;;;5017710;28;20435;-73
2022/09/18 18:14:33;;;;;;;;;;;22.50;49.20;;;;;;5018350;28;19926;-74
2022/09/18 18:17:00;;;;;;;;;;;22.50;49.20;;;;;;5017909;28;19948;-74
2022/09/18 18:19:27;;;;;;;;;;;22.50;49.20;;;;;;5018201;28;20359;-74
2022/09/18 18:21:53;;;;;;;;;;;22.50;49.40;;;;;;5017910;28;19925;-74
2022/09/18 18:24:21;;;;;;;;;;;22.50;49.60;;;;;;5018049;28;19926;-73
2022/09/18 18:26:48;;;;;;;;;;;22.50;49.70;;;;;;5018510;28;19937;-73
2022/09/18 18:29:17;;;;;;;;;;;22.50;49.80;;;;;;5017726;28;19933;-73
2022/09/18 18:31:46;;;;;;;;;;;22.50;49.90;;;;;;5017519;28;19929;-73
2022/09/18 18:34:14;;;;;;;;;;;22.50;50.00;;;;;;5017493;28;19979;-74
2022/09/18 18:36:41;;;;;;;;;;;22.50;50.10;;;;;;5017639;28;19976;-74
2022/09/18 18:39:11;;;;;;;;;;;22.50;50.20;;;;;;5017916;28;19925;-74
2022/09/18 18:41:38;;;;;;;;;;;22.50;50.30;;;;;;5017467;28;19934;-73
2022/09/18 18:44:05;;;;;;;;;;;22.50;50.40;;;;;;5017792;28;19929;-75
2022/09/18 18:46:34;;;;;;;;;;;22.50;50.50;;;;;;5017548;28;19925;-74
2022/09/18 18:49:02;;;;;;;;;;;22.50;50.70;;;;;;5016684;28;19925;-74
2022/09/18 18:51:30;;;;;;;;;;;22.50;50.80;;;;;;5017255;28;19929;-74
2022/09/18 18:53:59;;;;;;;;;;;22.50;50.90;;;;;;5017021;28;19925;-74
2022/09/18 18:56:25;;;;;;;;;;;22.50;51.00;;;;;;5017364;28;19937;-73
2022/09/18 18:58:54;;;;;;;;;;;22.50;51.20;;;;;;5016989;28;20292;-73
2022/09/18 19:01:21;;;;;;;;;;;22.50;51.30;;;;;;5017639;28;20272;-73
2022/09/18 19:03:50;;;;;;;;;;;22.50;51.40;;;;;;5016854;28;20424;-73
2022/09/18 19:06:17;;;;;;;;;;;22.50;51.50;;;;;;5017001;28;20332;-73
2022/09/18 19:08:45;;;;;;;;;;;22.50;51.60;;;;;;5016735;28;20549;-73
2022/09/18 19:11:13;;;;;;;;;;;22.60;51.80;;;;;;5016944;28;19979;-74
2022/09/18 19:13:43;;;;;;;;;;;22.60;52.00;;;;;;5016117;28;20230;-74
2022/09/18 19:16:10;;;;;;;;;;;22.60;52.10;;;;;;5017119;28;19933;-73
2022/09/18 19:18:37;;;;;;;;;;;22.50;52.10;;;;;;5016973;28;19929;-73
2022/09/18 19:21:05;;;;;;;;;;;22.50;52.20;;;;;;5016665;28;19936;-74
2022/09/18 19:23:32;;;;;;;;;;;22.60;52.40;;;;;;5015561;28;19925;-74
2022/09/18 19:25:59;;;;;;;;;;;22.60;52.60;;;;;;5015529;28;19931;-73
2022/09/18 19:28:27;;;;;;;;;;;22.60;52.70;;;;;;5015475;28;19984;-72
2022/09/18 19:30:54;;;;;;;;;;;22.50;52.70;;;;;;5015127;28;20374;-74
2022/09/18 19:33:21;;;;;;;;;;;22.50;52.80;;;;;;5015000;28;20282;-73
2022/09/18 19:35:48;;;;;;;;;;;22.50;52.80;;;;;;5014974;28;20404;-73